Search for airport 
image banner adimage banner adimage banner ad
image banner ad

5CA4 - Ludlow

Located in Barstow, United States

ICAO - 5CA4, IATA -

Data provided by Airmate  

General information

Coordinates: N34°43'44" W116°9'31"
Elevation is 1700 feet MSL.
Magnetic variation is 14° East
View others Airports in California

Operational data

Special qualification required
Current time UTC:
Current local time:
Weather at : KNXP - Twentynine Palms Self ( 48 km )
METAR: KNXP 150956Z AUTO 29011KT 10SM CLR 28/02 A2997 RMK AO2 SLP104 T02830022 $
TAF: TAF KNXP 1503/1603 25012KT 9999 SKC QNH2990INS BECMG 1516/1518 VRB05KT 9999 BKN200 QNH2987INS BECMG 1501/1503 27008KT 9999 SCT200 QNH2981INS T26/1513Z T44/1523Z
View NOTAMs / SUP AIP / TFR affecting this airport [VIEW]
Communications frequencies: [VIEW]

Runways:

RWY identifierQFULength (ft)Width (ft)SurfaceLDA (ft)
08260460ASPH
26260460ASPH

Airport contact information

Address: Barstow United States

Satellite view of 5CA4